LFMK/CCF METAR and TAF weather

Enter ICAO airport designator
Station Type Date Time Source
LFMK METAR 2020/07/04 02:30 UTC NOAA

LFMK 040230Z AUTO 26008KT CAVOK 16/11 Q1023


Station Type Date Time Source
LFMK Decoded METAR 2020/07/04 02:30 UTC NOAA

Carcassonne, France (LFMK) 43-13N 002-19E 130M
Jul 03, 2020 - 10:30 PM EDT / 2020.07.04 0230 UTC
Wind: from the W (260 degrees) at 9 MPH (8 KT):0
Visibility: greater than 7 mile(s):0
Temperature: 60 F (16 C)
Dew Point: 51 F (11 C)
Relative Humidity: 72%
Pressure (altimeter): 30.21 in. Hg (1023 hPa)
ob: LFMK 040230Z AUTO 26008KT CAVOK 16/11 Q1023
cycle: 2

Station Type Date Time Source
LFMK TAF 2020/07/03 16:03 UTC NOAA

TAF LFMK 031658Z 0316/0415 CNL

Example: see airport list